Current Conditions
Mostly Scattered
Clouds




Pressure
1014.52 (mb) - 29.96 (inHG)
Visibility

6.2 (mimiles) - 10.0 (km)
   Temperature
12  °C
54°F
8  °C
Dewpoint
77  %
 Humidity
   Wind Speed
5  mph
4  kts
8  km/h
2.2  m/s
   Wind Direction
 270°
Due West
   Airport Data
EGUL
Location RAF Lakenheath 4 mi (6.44 km)
Metar :EGUL 060947Z AUTO 27004KT 9999 SCT019 OVC025 12/08 A2996 RMK AO2 DZE0856 CIG 018V025 SLP149 $
Mon 6th April 10:47 am
   Raw Metar Info
Raw METAR is the most common format in the world for the transmission of observational weather data. It is highly standardized through the International Civil Aviation Organization (ICAO), which allows it to be understood throughout most of the world.
   API Info
Data Provided by
https://www.checkwx.com/weather/EGUL
   © Info
CSS/SVG/PHP scripts were developed by weather34.com for use in the weather34 template © 2015-2020

Guide Info provided by Metar-Wikipedia